Time;durP1;ratioP1;P1;durP2;ratioP2;P2;SDS_P1;SDS_P2;PMS_P1;PMS_P2;Temp;Humidity;BMP_temperature;BMP_pressure;BME280_temperature;BME280_humidity;BME280_pressure;Samples;Min_cycle;Max_cycle;Signal;HPM_P1;HPM_P2
2021/04/01 00:01:58;;;;;;;17.95;7.18;;;;;;;11.21;45.67;100345.66;5034434;28;20049;-66
2021/04/01 00:04:25;;;;;;;11.02;6.90;;;;;;;11.28;45.14;100340.56;5033575;28;20279;-66
2021/04/01 00:06:50;;;;;;;12.98;7.38;;;;;;;11.01;44.98;100346.78;5035771;28;20029;-66
2021/04/01 00:09:15;;;;;;;11.50;6.88;;;;;;;10.70;45.09;100347.09;5034293;28;20064;-70
2021/04/01 00:11:41;;;;;;;11.27;7.22;;;;;;;10.21;45.41;100335.88;5035494;28;20084;-73
2021/04/01 00:14:07;;;;;;;10.77;7.03;;;;;;;10.19;45.46;100334.31;5033357;28;20284;-73
2021/04/01 00:16:34;;;;;;;15.43;7.38;;;;;;;10.14;45.42;100342.69;5035810;28;20330;-67
2021/04/01 00:19:00;;;;;;;12.75;6.60;;;;;;;10.14;45.51;100329.47;5034470;28;20033;-66
2021/04/01 00:21:26;;;;;;;11.57;7.50;;;;;;;10.36;44.77;100332.75;5034338;28;20116;-66
2021/04/01 00:23:51;;;;;;;11.57;6.68;;;;;;;10.26;45.10;100322.22;5036622;28;20112;-66
2021/04/01 00:26:17;;;;;;;9.55;6.53;;;;;;;10.29;45.01;100332.50;5035957;28;20096;-72
2021/04/01 00:28:42;;;;;;;12.77;7.28;;;;;;;10.49;44.65;100325.34;5033872;28;20300;-66
2021/04/01 00:31:08;;;;;;;14.52;7.85;;;;;;;10.69;44.71;100326.06;5033434;28;20066;-67
2021/04/01 00:33:34;;;;;;;13.00;7.30;;;;;;;10.85;44.18;100327.06;5035957;28;20037;-66
2021/04/01 00:35:59;;;;;;;15.93;7.75;;;;;;;11.11;42.88;100328.97;5035952;28;20029;-67
2021/04/01 00:38:25;;;;;;;12.05;7.68;;;;;;;11.23;42.80;100327.78;5033671;28;20075;-72
2021/04/01 00:40:50;;;;;;;15.77;7.47;;;;;;;11.36;42.57;100322.91;5034877;28;20025;-73
2021/04/01 00:43:16;;;;;;;16.45;8.38;;;;;;;11.48;43.29;100316.41;5043265;28;20097;-68
2021/04/01 00:45:42;;;;;;;18.50;8.48;;;;;;;11.57;43.29;100319.97;5040436;28;20323;-71
2021/04/01 00:48:08;;;;;;;12.48;7.53;;;;;;;11.66;43.46;100320.84;5032946;28;20029;-70
2021/04/01 00:50:33;;;;;;;14.85;7.82;;;;;;;11.69;43.84;100317.88;5033614;28;20160;-69
2021/04/01 00:53:01;;;;;;;16.33;8.30;;;;;;;11.85;43.68;100317.19;5032201;28;20110;-70
2021/04/01 00:55:27;;;;;;;13.70;7.57;;;;;;;11.69;43.21;100325.84;5033306;28;20046;-70
2021/04/01 00:57:54;;;;;;;15.98;7.65;;;;;;;11.59;43.40;100315.34;5035039;28;20044;-66
2021/04/01 01:00:23;;;;;;;15.85;7.63;;;;;;;11.65;43.09;100305.94;5032044;28;20375;-70
2021/04/01 01:02:49;;;;;;;15.50;7.28;;;;;;;11.82;43.00;100308.56;5035356;28;20026;-71
2021/04/01 01:05:15;;;;;;;11.85;7.50;;;;;;;11.90;42.56;100293.69;5035235;28;20049;-65
2021/04/01 01:07:41;;;;;;;12.63;7.10;;;;;;;11.75;43.12;100294.22;5033475;28;20033;-64
2021/04/01 01:10:12;;;;;;;14.27;7.65;;;;;;;11.72;42.47;100285.75;5035283;28;20104;-64
2021/04/01 01:12:39;;;;;;;13.60;7.25;;;;;;;11.79;43.09;100310.69;5034998;28;20361;-72
2021/04/01 01:15:07;;;;;;;13.77;7.55;;;;;;;11.67;42.58;100293.34;5042502;28;20308;-67
2021/04/01 01:17:34;;;;;;;12.15;7.28;;;;;;;11.77;42.95;100278.16;5039783;28;20017;-67
2021/04/01 01:19:59;;;;;;;12.85;7.60;;;;;;;11.74;43.04;100279.28;5042445;28;20083;-73
2021/04/01 01:22:25;;;;;;;13.85;8.23;;;;;;;11.54;42.66;100272.53;5041765;28;20315;-73
2021/04/01 01:24:51;;;;;;;13.50;7.78;;;;;;;11.63;42.69;100276.06;5041759;28;20025;-69
2021/04/01 01:27:19;;;;;;;15.25;8.32;;;;;;;11.75;42.51;100265.03;5039988;28;20072;-70
2021/04/01 01:29:47;;;;;;;15.23;8.80;;;;;;;11.71;42.34;100270.81;5032462;28;20033;-69
2021/04/01 01:32:14;;;;;;;15.88;8.52;;;;;;;11.72;42.31;100269.81;5033235;28;20034;-65
2021/04/01 01:34:40;;;;;;;17.17;9.00;;;;;;;11.51;42.01;100256.94;5034926;28;20028;-70
2021/04/01 01:37:06;;;;;;;15.73;8.20;;;;;;;11.59;42.39;100258.81;5032757;28;20034;-64
2021/04/01 01:39:31;;;;;;;14.10;8.07;;;;;;;11.73;42.83;100253.75;5035187;28;20089;-70
2021/04/01 01:41:57;;;;;;;16.90;8.95;;;;;;;11.80;42.95;100244.22;5031871;28;20060;-70
2021/04/01 01:44:22;;;;;;;26.77;12.23;;;;;;;11.88;43.77;100251.38;5032450;28;20036;-71
2021/04/01 01:46:48;;;;;;;32.85;16.65;;;;;;;11.88;44.48;100248.72;5033719;28;20033;-70
2021/04/01 01:49:13;;;;;;;19.98;11.82;;;;;;;11.92;43.91;100247.41;5050196;28;20025;-64
2021/04/01 01:51:39;;;;;;;16.15;9.25;;;;;;;12.03;43.40;100248.97;5030711;28;20028;-70
2021/04/01 01:54:05;;;;;;;31.65;12.27;;;;;;;11.89;42.69;100247.72;5040466;28;20372;-71
2021/04/01 01:56:30;;;;;;;23.25;8.88;;;;;;;11.88;43.43;100237.28;5041284;28;20029;-69
2021/04/01 01:58:58;;;;;;;14.40;7.95;;;;;;;11.77;43.43;100238.34;5031416;28;20033;-70
2021/04/01 02:01:25;;;;;;;14.55;8.63;;;;;;;11.76;44.07;100236.69;5032374;28;20343;-69
2021/04/01 02:03:52;;;;;;;15.20;7.60;;;;;;;11.82;42.86;100230.78;5030525;28;20065;-69
2021/04/01 02:06:20;;;;;;;16.88;8.52;;;;;;;11.78;43.10;100230.28;5033908;28;20033;-70
2021/04/01 02:08:46;;;;;;;17.30;8.38;;;;;;;11.79;42.67;100223.97;5032399;28;20036;-64
2021/04/01 02:11:13;;;;;;;19.90;9.70;;;;;;;11.90;42.82;100236.13;5031460;28;20033;-64
2021/04/01 02:13:38;;;;;;;18.02;10.10;;;;;;;11.70;42.28;100232.84;5035278;28;20033;-64
2021/04/01 02:16:05;;;;;;;17.95;9.85;;;;;;;11.60;43.26;100226.81;5041303;28;20033;-70
2021/04/01 02:18:30;;;;;;;19.50;9.48;;;;;;;11.67;43.18;100227.03;5031333;28;20372;-71
2021/04/01 02:20:59;;;;;;;19.05;10.43;;;;;;;11.92;42.83;100228.84;5034175;28;20035;-71
2021/04/01 02:23:27;;;;;;;17.42;9.20;;;;;;;11.94;42.41;100228.69;5032400;28;20041;-64
2021/04/01 02:25:53;;;;;;;17.38;9.48;;;;;;;11.80;42.04;100225.63;5031158;28;20223;-66
2021/04/01 02:28:21;;;;;;;18.02;9.27;;;;;;;11.91;42.89;100229.84;5039934;28;20029;-65
2021/04/01 02:30:50;;;;;;;16.50;8.88;;;;;;;11.67;42.43;100224.38;5040486;28;20033;-65
2021/04/01 02:33:18;;;;;;;22.88;9.90;;;;;;;11.66;42.34;100222.72;5033894;28;20037;-70
2021/04/01 02:35:43;;;;;;;23.65;9.70;;;;;;;11.57;43.40;100227.13;5031803;28;20041;-64
2021/04/01 02:38:09;;;;;;;24.92;10.57;;;;;;;11.22;43.71;100221.88;5032075;28;20021;-70
2021/04/01 02:40:36;;;;;;;25.02;11.40;;;;;;;11.19;44.48;100221.22;5033196;28;20315;-70
2021/04/01 02:43:02;;;;;;;20.88;10.73;;;;;;;11.36;44.29;100214.22;5031990;28;20026;-64
2021/04/01 02:45:28;;;;;;;17.92;9.82;;;;;;;11.49;44.54;100200.56;5031591;28;20041;-69
2021/04/01 02:47:53;;;;;;;22.42;10.63;;;;;;;11.54;44.80;100206.22;5031576;28;20021;-69
2021/04/01 02:50:21;;;;;;;28.30;10.82;;;;;;;11.56;44.08;100204.25;5033783;28;20029;-72
2021/04/01 02:52:47;;;;;;;18.50;10.00;;;;;;;11.57;44.27;100205.09;5031577;28;20032;-67
2021/04/01 02:55:13;;;;;;;19.15;10.07;;;;;;;11.56;44.68;100198.94;5037305;28;20037;-73
2021/04/01 02:57:39;;;;;;;15.73;8.57;;;;;;;11.66;43.78;100204.97;5031824;28;20028;-67
2021/04/01 03:00:09;;;;;;;19.70;9.38;;;;;;;11.62;43.75;100189.53;5031176;28;20049;-74
2021/04/01 03:02:36;;;;;;;15.80;8.55;;;;;;;11.52;44.15;100205.56;5033227;28;20104;-73
2021/04/01 03:05:06;;;;;;;15.30;8.60;;;;;;;11.57;43.15;100200.59;5031283;28;20043;-73
2021/04/01 03:07:33;;;;;;;15.50;8.77;;;;;;;11.43;43.60;100187.91;5038829;28;20029;-67
2021/04/01 03:09:58;;;;;;;17.35;9.77;;;;;;;11.34;44.58;100187.03;5040384;28;20048;-66
2021/04/01 03:12:24;;;;;;;15.88;9.73;;;;;;;11.61;43.23;100193.16;5035452;28;20029;-66
2021/04/01 03:14:49;;;;;;;20.73;9.93;;;;;;;11.60;44.21;100191.50;5031028;28;20280;-67
2021/04/01 03:17:15;;;;;;;22.23;10.38;;;;;;;11.70;43.58;100190.41;5035270;28;20349;-72
2021/04/01 03:19:40;;;;;;;23.90;10.07;;;;;;;11.54;44.01;100185.00;5031415;28;20029;-66
2021/04/01 03:22:05;;;;;;;20.60;8.65;;;;;;;11.37;43.43;100177.91;5031560;28;20022;-66
2021/04/01 03:24:31;;;;;;;17.58;9.00;;;;;;;11.23;44.15;100174.03;5033011;28;20037;-72
2021/04/01 03:26:56;;;;;;;19.48;9.63;;;;;;;11.14;43.91;100181.09;5033425;28;20033;-66
2021/04/01 03:29:22;;;;;;;16.45;9.43;;;;;;;11.12;44.59;100175.09;5030883;28;20039;-67
2021/04/01 03:31:47;;;;;;;18.45;10.02;;;;;;;11.13;43.77;100171.47;5033516;28;20068;-67
2021/04/01 03:34:13;;;;;;;18.02;10.55;;;;;;;10.92;44.51;100160.38;5033567;28;20173;-68
2021/04/01 03:36:39;;;;;;;21.33;9.85;;;;;;;10.97;44.86;100176.66;5032312;28;20053;-66
2021/04/01 03:39:04;;;;;;;20.92;9.90;;;;;;;11.05;44.84;100174.06;5032081;28;20139;-66
2021/04/01 03:41:30;;;;;;;23.30;9.18;;;;;;;10.82;45.58;100179.03;5037207;28;20026;-66
2021/04/01 03:43:55;;;;;;;34.80;12.05;;;;;;;10.76;45.98;100179.63;5039878;28;20321;-67
2021/04/01 03:46:21;;;;;;;36.05;12.00;;;;;;;10.95;45.56;100183.94;5032775;28;20032;-66
2021/04/01 03:48:46;;;;;;;24.58;10.75;;;;;;;10.74;45.67;100192.19;5032369;28;20263;-66
2021/04/01 03:51:12;;;;;;;23.20;11.00;;;;;;;10.76;46.12;100194.69;5031241;28;20072;-67
2021/04/01 03:53:37;;;;;;;26.42;11.35;;;;;;;10.96;45.09;100198.84;5038469;28;20227;-67
2021/04/01 03:56:04;;;;;;;24.00;9.95;;;;;;;10.77;45.44;100202.50;5039776;28;20140;-72
2021/04/01 04:11:40;;;;;;;30.48;12.38;;;;;;;10.10;47.30;100209.03;5032115;28;20033;-72
2021/04/01 04:14:32;;;;;;;22.65;10.98;;;;;;;10.21;47.79;100221.25;5032901;28;20053;-67
2021/04/01 04:16:58;;;;;;;25.88;10.20;;;;;;;10.07;47.28;100227.84;5030096;28;20564;-72
2021/04/01 04:19:23;;;;;;;21.85;10.55;;;;;;;9.90;48.19;100225.97;5032295;28;20029;-67
2021/04/01 04:21:49;;;;;;;17.70;10.43;;;;;;;9.87;48.57;100218.31;5031208;28;20029;-72
2021/04/01 04:24:15;;;;;;;22.38;11.13;;;;;;;9.53;49.34;100218.88;5032356;28;20033;-72
2021/04/01 04:26:41;;;;;;;31.77;12.90;;;;;;;9.42;49.88;100219.03;5030011;28;20373;-72
2021/04/01 04:29:06;;;;;;;31.02;13.80;;;;;;;9.45;49.58;100216.09;5033250;28;20037;-70
2021/04/01 04:31:31;;;;;;;29.88;13.23;;;;;;;9.88;48.06;100215.53;5035868;28;20227;-72
2021/04/01 04:33:57;;;;;;;19.08;10.30;;;;;;;9.64;50.18;100217.03;5031781;28;20037;-66
2021/04/01 04:36:22;;;;;;;17.45;9.25;;;;;;;9.01;51.76;100222.00;5033882;28;20387;-67
2021/04/01 04:38:48;;;;;;;19.02;9.50;;;;;;;9.09;51.13;100215.03;5037293;28;20029;-64
2021/04/01 04:41:13;;;;;;;19.85;9.35;;;;;;;9.04;51.10;100211.97;5042855;28;20064;-64
2021/04/01 04:43:38;;;;;;;83.75;22.95;;;;;;;9.05;51.37;100211.00;5040657;28;20081;-67
2021/04/01 04:46:04;;;;;;;30.55;13.50;;;;;;;9.15;51.42;100216.28;5034569;28;20047;-72
2021/04/01 04:48:30;;;;;;;21.92;11.52;;;;;;;9.35;50.73;100219.72;5042358;28;20051;-72
2021/04/01 04:50:56;;;;;;;28.20;12.50;;;;;;;9.62;50.33;100219.81;5035706;28;20025;-72
2021/04/01 04:53:23;;;;;;;41.75;16.33;;;;;;;9.58;49.80;100219.28;5033410;28;20048;-72
2021/04/01 04:58:28;;;;;;;71.50;22.60;;;;;;;9.73;50.27;100216.16;5032107;28;20037;-72
2021/04/01 05:01:03;;;;;;;52.35;19.88;;;;;;;9.58;50.82;100221.09;5041110;28;20063;-67
2021/04/01 05:06:44;;;;;;;52.05;24.17;;;;;;;9.90;49.09;100218.03;5040789;28;19925;-67
2021/04/01 05:09:09;;;;;;;38.92;17.08;;;;;;;9.90;48.51;100223.31;5042234;28;20092;-67
2021/04/01 05:11:34;;;;;;;27.95;11.93;;;;;;;9.73;48.09;100221.44;5042189;28;20054;-67
2021/04/01 05:14:01;;;;;;;24.98;11.70;;;;;;;9.94;47.53;100224.69;5031977;28;20208;-67
2021/04/01 05:16:26;;;;;;;24.45;10.50;;;;;;;9.95;47.10;100222.88;5033634;28;20045;-72
2021/04/01 05:18:53;;;;;;;23.25;11.25;;;;;;;10.13;47.18;100224.59;5035212;28;20029;-71
2021/04/01 05:21:20;;;;;;;28.77;11.48;;;;;;;10.39;47.31;100235.34;5040627;28;20373;-71
2021/04/01 05:23:50;;;;;;;24.48;10.63;;;;;;;10.43;47.50;100227.97;5042920;28;20128;-64
2021/04/01 05:29:10;;;;;;;27.80;10.80;;;;;;;11.07;46.16;100238.34;5041820;28;20231;-63
2021/04/01 05:31:39;;;;;;;22.42;10.15;;;;;;;11.05;45.62;100252.75;5032002;28;20022;-64
2021/04/01 05:34:05;;;;;;;24.83;10.70;;;;;;;11.09;46.06;100236.38;5031351;28;20354;-70
2021/04/01 05:36:35;;;;;;;25.80;10.75;;;;;;;11.39;45.52;100227.16;5035551;28;20029;-69
2021/04/01 05:39:01;;;;;;;23.17;11.38;;;;;;;11.63;45.16;100223.03;5041261;28;20136;-69
2021/04/01 05:41:29;;;;;;;35.78;12.55;;;;;;;11.87;44.18;100220.53;5040894;28;20041;-64
2021/04/01 05:44:10;;;;;;;30.05;12.52;;;;;;;12.20;43.61;100242.72;5031444;28;20365;-64
2021/04/01 05:46:45;;;;;;;21.73;11.63;;;;;;;12.27;43.66;100245.56;5032272;28;20045;-70
2021/04/01 06:06:05;;;;;;;27.80;12.68;;;;;;;13.21;42.34;100262.06;5031582;28;20768;-70
2021/04/01 06:08:38;;;;;;;35.28;13.30;;;;;;;13.09;41.99;100258.88;5034916;28;20037;-66
2021/04/01 06:11:04;;;;;;;26.38;12.57;;;;;;;13.41;41.36;100267.88;5040350;28;20355;-67
2021/04/01 06:13:31;;;;;;;18.15;11.63;;;;;;;13.75;40.98;100259.72;5035723;28;20039;-72
2021/04/01 06:16:02;;;;;;;23.30;12.77;;;;;;;13.97;41.02;100269.63;5029850;28;20029;-69
2021/04/01 06:18:27;;;;;;;25.52;12.75;;;;;;;14.22;40.16;100269.53;5030591;28;20104;-66
2021/04/01 06:20:53;;;;;;;26.17;12.18;;;;;;;14.39;39.66;100261.31;5035115;28;20025;-72
2021/04/01 06:23:30;;;;;;;23.48;12.18;;;;;;;14.49;38.87;100262.94;5040314;28;20033;-72
2021/04/01 06:25:58;;;;;;;26.55;12.02;;;;;;;14.61;39.53;100267.75;5035335;28;20042;-67
2021/04/01 06:28:49;;;;;;;20.55;12.98;;;;;;;14.85;37.77;100284.59;5033267;28;20082;-72
2021/04/01 06:31:23;;;;;;;21.90;12.43;;;;;;;14.24;39.63;100305.66;5029901;28;20329;-72
2021/04/01 06:33:51;;;;;;;18.48;9.88;;;;;;;13.08;42.79;100307.72;5031412;28;20410;-69
2021/04/01 06:36:22;;;;;;;20.20;9.88;;;;;;;12.43;43.33;100306.72;5031717;28;20377;-71
2021/04/01 06:38:48;;;;;;;14.63;9.07;;;;;;;12.20;45.34;100317.06;5031462;28;20087;-64
2021/04/01 06:41:26;;;;;;;24.00;9.85;;;;;;;11.58;45.91;100303.06;5030753;28;20047;-66
2021/04/01 06:43:59;;;;;;;16.40;9.85;;;;;;;12.06;44.71;100313.19;5035357;28;20033;-69
2021/04/01 06:46:27;;;;;;;16.52;10.15;;;;;;;12.13;45.26;100319.53;5039016;28;20212;-63
2021/04/01 06:51:48;;;;;;;20.75;9.95;;;;;;;12.51;43.47;100321.88;5030750;28;20096;-68
2021/04/01 06:57:04;;;;;;;17.98;9.57;;;;;;;12.51;41.86;100320.06;5030977;28;20092;-63
2021/04/01 07:02:27;;;;;;;17.25;10.00;;;;;;;12.50;42.36;100318.38;5032533;28;20025;-66
2021/04/01 07:04:58;;;;;;;19.13;9.45;;;;;;;12.46;41.67;100317.84;5031170;28;20029;-72
2021/04/01 07:07:24;;;;;;;18.60;9.82;;;;;;;12.48;43.02;100309.72;5031061;28;20075;-63
2021/04/01 07:12:45;;;;;;;19.52;10.27;;;;;;;13.05;40.97;100318.69;5029276;28;20028;-69
2021/04/01 07:15:25;;;;;;;17.45;9.50;;;;;;;13.35;41.54;100316.41;5029423;28;20037;-66
2021/04/01 07:18:00;;;;;;;17.13;10.00;;;;;;;13.45;39.53;100321.56;5029733;28;20308;-66
2021/04/01 07:35:00;;;;;;;18.10;9.52;;;;;;;12.98;41.41;100315.03;5030551;28;19916;-69
2021/04/01 07:48:18;;;;;;;15.30;8.82;;;;;;;14.96;38.58;100311.69;5038791;28;20033;-72
2021/04/01 07:50:44;;;;;;;15.88;9.48;;;;;;;14.74;38.64;100319.66;5031876;28;20041;-72
2021/04/01 07:53:14;;;;;;;21.52;12.10;;;;;;;14.65;40.48;100309.03;5030731;28;20303;-66
2021/04/01 08:03:54;;;;;;;19.70;10.55;;;;;;;15.49;39.05;100301.94;5033854;28;20053;-66
2021/04/01 08:06:26;;;;;;;14.10;9.48;;;;;;;15.63;37.69;100303.88;5034544;28;20044;-66
2021/04/01 08:08:56;;;;;;;19.95;11.13;;;;;;;15.40;38.08;100292.34;5035524;28;20323;-72
2021/04/01 08:11:30;;;;;;;18.60;9.23;;;;;;;15.38;37.58;100298.88;5035885;28;20097;-71
2021/04/01 08:14:14;;;;;;;27.42;13.50;;;;;;;15.38;37.70;100296.22;5035609;28;20021;-66
2021/04/01 08:16:48;;;;;;;13.23;8.10;;;;;;;15.37;37.46;100291.88;5032867;28;20091;-66
2021/04/01 08:19:17;;;;;;;20.63;10.10;;;;;;;15.60;38.07;100298.03;5034219;28;20036;-66
2021/04/01 08:21:43;;;;;;;15.98;9.02;;;;;;;15.16;38.71;100292.53;5033380;28;20032;-71
2021/04/01 08:24:16;;;;;;;16.65;9.18;;;;;;;15.50;37.41;100284.91;5035049;28;20097;-72
2021/04/01 08:26:53;;;;;;;27.55;12.93;;;;;;;15.50;37.60;100286.75;5035728;28;20231;-66
2021/04/01 08:32:11;;;;;;;13.65;9.07;;;;;;;15.22;36.72;100276.66;5041318;28;20033;-71
2021/04/01 08:34:41;;;;;;;14.70;9.38;;;;;;;15.38;37.26;100273.03;5034609;28;20076;-66
2021/04/01 08:37:08;;;;;;;13.50;8.55;;;;;;;15.33;37.50;100267.41;5036300;28;20033;-72
2021/04/01 08:39:36;;;;;;;16.38;9.52;;;;;;;15.33;36.67;100267.41;5041977;28;20029;-66
2021/04/01 08:42:07;;;;;;;17.45;9.32;;;;;;;15.58;36.88;100260.84;5039409;28;20129;-72
2021/04/01 08:44:54;;;;;;;17.15;10.20;;;;;;;15.87;38.21;100260.09;5033903;28;20040;-70
2021/04/01 08:47:42;;;;;;;19.48;10.23;;;;;;;16.39;36.24;100269.81;5034905;28;20063;-71
2021/04/01 08:53:12;;;;;;;17.08;9.00;;;;;;;16.97;33.07;100260.03;5039218;28;20021;-69
2021/04/01 08:55:41;;;;;;;17.83;9.23;;;;;;;17.23;32.82;100262.94;5039568;28;20041;-69
2021/04/01 08:58:10;;;;;;;16.75;9.75;;;;;;;17.33;32.84;100259.94;5041726;28;20032;-63
2021/04/01 09:00:41;;;;;;;15.35;8.85;;;;;;;17.43;31.14;100251.56;5039842;28;20316;-64
2021/04/01 09:03:08;;;;;;;16.20;11.00;;;;;;;17.56;32.23;100260.53;5042602;28;20056;-68
2021/04/01 09:05:33;;;;;;;19.88;9.13;;;;;;;17.65;32.51;100247.81;5040266;28;20245;-64
2021/04/01 09:08:02;;;;;;;18.13;9.05;;;;;;;17.27;34.84;100251.84;5041894;28;20064;-69
2021/04/01 09:18:22;;;;;;;13.43;8.82;;;;;;;17.44;32.74;100242.53;5041207;28;20075;-63
2021/04/01 09:20:53;;;;;;;17.67;9.82;;;;;;;17.69;31.69;100246.47;5041652;28;20033;-63
2021/04/01 09:23:21;;;;;;;15.75;10.00;;;;;;;17.77;30.87;100237.44;5042649;28;20025;-69
2021/04/01 09:25:49;;;;;;;18.40;9.05;;;;;;;17.93;30.74;100245.19;5040295;28;20037;-69
2021/04/01 09:28:15;;;;;;;15.35;8.52;;;;;;;17.98;29.84;100237.38;5040436;28;20060;-64
2021/04/01 09:30:43;;;;;;;12.75;8.02;;;;;;;17.82;29.45;100226.97;5038813;28;20064;-64
2021/04/01 09:33:14;;;;;;;14.77;8.15;;;;;;;17.79;29.52;100227.38;5039322;28;20075;-69
2021/04/01 09:35:40;;;;;;;19.13;8.70;;;;;;;17.99;29.48;100225.63;5040373;28;20049;-64
2021/04/01 09:38:10;;;;;;;15.65;8.82;;;;;;;18.17;29.61;100222.41;5041746;28;20200;-65
2021/04/01 09:40:41;;;;;;;26.00;8.90;;;;;;;18.08;30.66;100211.03;5040740;28;20104;-69
2021/04/01 09:43:19;;;;;;;18.10;9.32;;;;;;;17.83;31.54;100212.56;5041099;28;20069;-64
2021/04/01 09:45:46;;;;;;;12.48;8.18;;;;;;;17.67;30.65;100204.81;5039045;28;20101;-69
2021/04/01 09:48:14;;;;;;;14.02;8.55;;;;;;;17.19;30.15;100205.47;5041613;28;20017;-69
2021/04/01 09:50:45;;;;;;;13.75;8.10;;;;;;;17.13;30.75;100205.41;5038891;28;20037;-69
2021/04/01 09:53:23;;;;;;;18.08;8.05;;;;;;;17.28;31.77;100189.28;5040594;28;20037;-69
2021/04/01 09:55:54;;;;;;;20.55;8.50;;;;;;;17.33;31.92;100194.88;5038530;28;20087;-69
2021/04/01 09:58:24;;;;;;;19.40;8.63;;;;;;;17.27;31.53;100188.44;5041643;28;20240;-70
2021/04/01 10:03:33;;;;;;;14.90;8.43;;;;;;;17.36;30.89;100183.78;5040916;28;20057;-69
2021/04/01 10:05:59;;;;;;;15.15;8.25;;;;;;;17.18;30.76;100176.22;5040087;28;20040;-63
2021/04/01 10:08:32;;;;;;;13.80;8.25;;;;;;;17.39;30.83;100173.50;5041426;28;20022;-64
2021/04/01 10:11:07;;;;;;;15.30;7.93;;;;;;;17.29;30.89;100178.38;5040062;28;20036;-64
2021/04/01 10:13:33;;;;;;;13.80;8.48;;;;;;;17.38;30.53;100163.00;5039926;28;20057;-70
2021/04/01 10:15:59;;;;;;;14.00;8.48;;;;;;;17.26;30.45;100157.34;5042339;28;20315;-63
2021/04/01 10:18:36;;;;;;;19.00;7.50;;;;;;;17.42;29.93;100162.41;5040895;28;20061;-70
2021/04/01 10:21:04;;;;;;;13.07;7.35;;;;;;;17.48;29.57;100163.47;5039845;28;20362;-64
2021/04/01 10:23:42;;;;;;;12.30;7.07;;;;;;;17.61;28.28;100163.53;5041159;28;20024;-64
2021/04/01 10:26:09;;;;;;;17.52;7.82;;;;;;;17.75;30.12;100151.13;5038513;28;20044;-66
2021/04/01 10:31:11;;;;;;;12.10;7.03;;;;;;;17.72;28.13;100144.31;5039907;28;20188;-69
2021/04/01 10:34:15;;;;;;;12.70;7.65;;;;;;;17.71;28.28;100136.47;5039772;28;20319;-64
2021/04/01 10:36:42;;;;;;;16.70;8.07;;;;;;;17.59;27.63;100140.66;5038921;28;20053;-70
2021/04/01 10:39:10;;;;;;;15.00;8.02;;;;;;;17.71;28.68;100137.28;5040668;28;20033;-69
2021/04/01 10:41:53;;;;;;;16.13;7.82;;;;;;;17.66;28.71;100136.16;5032838;28;20068;-69
2021/04/01 10:44:21;;;;;;;13.98;7.88;;;;;;;17.51;27.46;100133.63;5031509;28;20067;-64
2021/04/01 10:47:02;;;;;;;11.38;7.00;;;;;;;17.49;29.20;100131.16;5029541;28;20233;-64
2021/04/01 10:49:30;;;;;;;11.45;7.28;;;;;;;17.64;27.94;100125.66;5029987;28;20243;-65
2021/04/01 10:52:05;;;;;;;16.00;6.75;;;;;;;17.85;27.78;100130.16;5029321;28;20030;-64
2021/04/01 10:54:42;;;;;;;14.55;7.43;;;;;;;17.89;27.61;100114.50;5030021;28;20034;-64
2021/04/01 10:57:10;;;;;;;12.82;6.95;;;;;;;18.07;27.38;100115.59;5032903;28;20052;-64
2021/04/01 10:59:38;;;;;;;16.23;6.95;;;;;;;17.93;27.74;100115.75;5030273;28;20033;-69
2021/04/01 11:02:19;;;;;;;13.18;7.25;;;;;;;17.96;26.86;100112.66;5033640;28;20131;-65
2021/04/01 11:05:01;;;;;;;12.82;7.63;;;;;;;17.94;27.19;100104.00;5038471;28;20053;-70
2021/04/01 11:07:32;;;;;;;12.52;7.32;;;;;;;17.89;27.64;100106.47;5035172;28;20022;-69
2021/04/01 11:09:59;;;;;;;11.27;7.05;;;;;;;17.89;26.28;100099.25;5030906;28;20033;-70
2021/04/01 11:12:25;;;;;;;11.45;6.80;;;;;;;17.88;26.85;100096.78;5030746;28;20119;-70
2021/04/01 11:14:53;;;;;;;17.58;7.32;;;;;;;18.00;26.24;100084.44;5031532;28;20109;-64
2021/04/01 11:17:21;;;;;;;12.57;7.50;;;;;;;17.83;27.92;100087.47;5031889;28;20029;-63
2021/04/01 11:19:48;;;;;;;11.07;7.32;;;;;;;17.41;28.75;100079.63;5032063;28;20021;-69
2021/04/01 11:22:15;;;;;;;13.35;7.35;;;;;;;17.40;28.18;100083.31;5030105;28;20048;-69
2021/04/01 11:24:42;;;;;;;12.48;6.35;;;;;;;17.56;27.90;100067.75;5032688;28;20022;-70
2021/04/01 11:27:13;;;;;;;11.65;6.07;;;;;;;17.64;26.40;100069.44;5031386;28;20030;-70
2021/04/01 11:29:42;;;;;;;16.60;7.50;;;;;;;17.59;27.09;100074.56;5031349;28;20033;-63
2021/04/01 11:32:25;;;;;;;9.48;5.97;;;;;;;17.46;25.76;100064.59;5032238;28;20040;-69
2021/04/01 11:34:53;;;;;;;13.85;7.22;;;;;;;17.67;27.19;100062.88;5033382;28;20025;-64
2021/04/01 11:37:25;;;;;;;11.80;6.72;;;;;;;17.62;27.30;100054.59;5040885;28;20034;-69
2021/04/01 11:39:57;;;;;;;10.90;6.93;;;;;;;17.58;29.23;100061.38;5039677;28;20156;-70
2021/04/01 11:42:23;;;;;;;17.85;7.75;;;;;;;17.39;27.95;100039.66;5034098;28;20025;-68
2021/04/01 11:44:56;;;;;;;14.25;7.53;;;;;;;17.28;27.26;100048.25;5034747;28;20215;-63
2021/04/01 11:47:23;;;;;;;15.85;7.63;;;;;;;17.16;28.47;100045.31;5035716;28;20126;-69
2021/04/01 11:49:51;;;;;;;10.75;6.68;;;;;;;17.23;26.67;100048.03;5042040;28;20893;-64
2021/04/01 11:52:19;;;;;;;13.10;6.32;;;;;;;17.60;26.24;100043.25;5043686;28;20021;-64
2021/04/01 11:54:46;;;;;;;13.80;7.22;;;;;;;17.39;26.68;100033.47;5032935;28;20136;-64
2021/04/01 11:57:30;;;;;;;12.20;6.50;;;;;;;17.39;26.37;100031.63;5036712;28;20342;-69
2021/04/01 12:00:17;;;;;;;15.23;7.07;;;;;;;17.59;26.32;100026.34;5044256;28;20022;-64
2021/04/01 12:05:43;;;;;;;14.27;7.55;;;;;;;17.75;26.79;100018.03;5035215;28;20067;-70
2021/04/01 12:08:09;;;;;;;15.48;7.70;;;;;;;17.69;27.15;100020.69;5036962;28;20049;-64
2021/04/01 12:10:34;;;;;;;16.35;7.78;;;;;;;17.65;27.75;100011.34;5033458;28;20474;-64
2021/04/01 12:13:00;;;;;;;12.88;7.43;;;;;;;17.95;27.83;100004.69;5034799;28;20056;-69
2021/04/01 12:15:31;;;;;;;11.68;7.55;;;;;;;18.05;25.50;99996.25;5036698;28;20030;-64
2021/04/01 12:17:57;;;;;;;11.68;7.25;;;;;;;18.00;26.97;99998.72;5035850;28;20018;-64
2021/04/01 12:20:23;;;;;;;15.07;7.18;;;;;;;17.70;26.05;99988.34;5040164;28;20594;-69
2021/04/01 12:22:52;;;;;;;14.27;6.95;;;;;;;17.88;26.51;99998.47;5033744;28;20045;-69
2021/04/01 12:25:20;;;;;;;14.90;6.63;;;;;;;17.79;27.08;99978.28;5033719;28;20033;-70
2021/04/01 12:27:55;;;;;;;11.13;6.50;;;;;;;17.87;25.83;99970.03;5035597;28;20044;-70
2021/04/01 12:30:32;;;;;;;15.07;7.45;;;;;;;17.91;26.31;99982.00;5034141;28;20041;-69
2021/04/01 12:33:23;;;;;;;13.43;7.32;;;;;;;18.06;26.26;99965.72;5036186;28;20204;-69
2021/04/01 12:35:57;;;;;;;18.58;7.03;;;;;;;18.00;25.79;99964.69;5033411;28;20106;-70
2021/04/01 12:38:35;;;;;;;11.82;6.85;;;;;;;18.07;25.74;99964.69;5042313;28;20033;-71
2021/04/01 12:41:03;;;;;;;9.93;6.43;;;;;;;18.13;26.24;99953.16;5040577;28;20354;-64
2021/04/01 12:43:31;;;;;;;12.57;7.43;;;;;;;18.37;24.72;99957.06;5036083;28;20021;-70
2021/04/01 12:45:57;;;;;;;10.73;6.45;;;;;;;18.22;25.57;99946.56;5036081;28;20038;-69
2021/04/01 12:48:22;;;;;;;12.32;6.72;;;;;;;18.13;25.94;99942.44;5033653;28;20075;-64
2021/04/01 12:50:52;;;;;;;10.15;5.90;;;;;;;18.09;25.94;99935.84;5034701;28;20026;-70
2021/04/01 12:53:20;;;;;;;10.30;5.95;;;;;;;18.13;25.66;99937.91;5034702;28;20359;-64
2021/04/01 12:55:54;;;;;;;13.65;6.65;;;;;;;18.21;26.01;99930.69;5028816;28;20069;-69
2021/04/01 12:58:45;;;;;;;10.05;6.30;;;;;;;18.21;25.50;99931.50;5033448;28;20029;-64
2021/04/01 13:03:51;;;;;;;12.07;6.03;;;;;;;18.29;26.07;99920.59;5037176;28;20253;-64
2021/04/01 13:11:44;;;;;;;14.30;5.63;;;;;;;18.38;24.82;99908.59;5041393;28;20056;-64
2021/04/01 13:14:10;;;;;;;12.00;6.38;;;;;;;18.34;25.32;99904.69;5039112;28;20029;-65
2021/04/01 13:16:36;;;;;;;9.55;5.90;;;;;;;18.41;25.25;99902.84;5031275;28;20358;-64
2021/04/01 13:19:01;;;;;;;9.02;6.05;;;;;;;18.40;24.83;99908.41;5041607;28;20037;-64